createdAt,value
2018-07-10T00:02:18.120Z,56.90
2018-07-10T00:07:06.774Z,56.70
2018-07-10T00:11:59.269Z,57.40
2018-07-10T00:14:41.178Z,57.60
2018-07-10T00:17:22.396Z,60.20
2018-07-10T00:20:06.711Z,59.30
2018-07-10T00:22:44.163Z,58.40
2018-07-10T00:25:22.186Z,58.60
2018-07-10T00:28:02.020Z,58.40
2018-07-10T00:30:41.894Z,58.20
2018-07-10T00:41:43.341Z,58.00
2018-07-10T00:44:13.209Z,57.70
2018-07-10T00:46:43.462Z,58.70
2018-07-10T00:49:13.281Z,58.60
2018-07-10T00:51:43.797Z,58.90
2018-07-10T00:54:13.737Z,58.20
2018-07-10T00:56:43.591Z,59.40
2018-07-10T00:59:13.458Z,58.50
2018-07-10T01:01:43.383Z,58.20
2018-07-10T01:06:42.755Z,59.70
2018-07-10T01:09:14.516Z,59.90
2018-07-10T01:11:45.017Z,60.50
2018-07-10T01:14:14.924Z,59.30
2018-07-10T01:16:44.777Z,59.10
2018-07-10T01:19:16.504Z,59.80
2018-07-10T01:21:47.896Z,59.60
2018-07-10T01:24:18.394Z,59.60
2018-07-10T01:26:49.805Z,60.20
2018-07-10T01:29:24.786Z,60.10
2018-07-10T01:31:54.928Z,59.70
2018-07-10T01:34:25.071Z,59.50
2018-07-10T01:39:25.032Z,61.20
2018-07-10T01:41:54.785Z,60.10
2018-07-10T01:44:24.682Z,60.40
2018-07-10T01:46:54.614Z,59.40
2018-07-10T01:49:24.401Z,59.20
2018-07-10T01:51:55.266Z,59.40
2018-07-10T01:54:25.016Z,59.10
2018-07-10T01:56:54.964Z,59.20
2018-07-10T01:59:24.947Z,59.20
2018-07-10T02:01:54.771Z,59.80
2018-07-10T02:04:24.754Z,59.70
2018-07-10T02:06:54.704Z,59.40
2018-07-10T02:09:24.573Z,59.80
2018-07-10T02:11:54.633Z,60.80
2018-07-10T02:16:54.023Z,61.00
2018-07-10T02:19:24.076Z,62.10
2018-07-10T02:21:54.475Z,61.10
2018-07-10T02:27:00.899Z,60.60
2018-07-10T02:29:30.774Z,61.70
2018-07-10T02:32:00.620Z,60.90
2018-07-10T02:34:30.551Z,61.30
2018-07-10T02:39:32.714Z,61.00
2018-07-10T02:42:02.630Z,61.80
2018-07-10T02:44:32.604Z,61.30
2018-07-10T02:47:02.722Z,60.80
2018-07-10T02:49:32.700Z,61.00
2018-07-10T02:52:05.574Z,60.90
2018-07-10T02:54:38.932Z,61.50
2018-07-10T02:57:10.608Z,61.20
2018-07-10T02:59:41.514Z,62.10
2018-07-10T03:02:22.718Z,62.00
2018-07-10T03:05:00.066Z,61.90
2018-07-10T03:07:32.049Z,61.80
2018-07-10T03:10:02.511Z,63.40
2018-07-10T03:12:37.008Z,63.90
2018-07-10T03:15:11.892Z,64.10
2018-07-10T03:17:42.285Z,63.70
2018-07-10T03:20:12.161Z,62.80
2018-07-10T03:22:42.009Z,63.00
2018-07-10T03:25:11.845Z,64.10
2018-07-10T03:27:41.629Z,63.20
2018-07-10T03:30:11.860Z,64.30
2018-07-10T03:32:42.350Z,64.40
2018-07-10T03:35:13.592Z,65.40
2018-07-10T03:37:43.441Z,65.90
2018-07-10T03:40:15.684Z,65.60
2018-07-10T03:42:46.077Z,66.80
2018-07-10T03:45:16.590Z,66.00
2018-07-10T03:47:50.709Z,65.60
2018-07-10T03:50:20.641Z,65.60
2018-07-10T03:52:50.579Z,66.50
2018-07-10T03:55:21.262Z,65.40
2018-07-10T03:57:54.216Z,65.20
2018-07-10T04:00:24.146Z,64.60
2018-07-10T04:02:54.263Z,64.10
2018-07-10T04:05:24.570Z,64.00
2018-07-10T04:07:56.263Z,64.30
2018-07-10T04:10:31.592Z,64.20
2018-07-10T04:13:09.806Z,65.40
2018-07-10T04:15:40.091Z,64.80
2018-07-10T04:18:15.820Z,64.60
2018-07-10T04:21:31.322Z,64.70
2018-07-10T04:24:04.330Z,63.80
2018-07-10T04:26:36.673Z,64.60
2018-07-10T04:29:16.014Z,63.70
2018-07-10T04:31:56.902Z,63.40
2018-07-10T04:34:30.294Z,63.40
2018-07-10T04:37:08.841Z,63.30
2018-07-10T04:39:40.644Z,63.30
2018-07-10T04:42:30.734Z,62.40
2018-07-10T04:45:10.420Z,62.50
2018-07-10T04:47:53.323Z,62.50
2018-07-10T04:51:33.677Z,62.80
2018-07-10T04:54:23.660Z,61.90
2018-07-10T04:57:00.314Z,62.60
2018-07-10T05:04:31.593Z,63.10
2018-07-10T05:07:05.245Z,62.60
2018-07-10T05:09:35.888Z,62.20
2018-07-10T05:12:06.767Z,62.70
2018-07-10T05:19:48.884Z,62.30
2018-07-10T05:24:57.766Z,64.40
2018-07-10T05:27:27.594Z,64.40
2018-07-10T05:29:58.848Z,62.50
2018-07-10T05:37:35.526Z,64.20
2018-07-10T05:40:08.724Z,63.10
2018-07-10T05:42:46.375Z,62.60
2018-07-10T05:45:20.027Z,62.70
2018-07-10T05:47:53.580Z,63.60
2018-07-10T05:50:23.579Z,61.60
2018-07-10T05:52:54.557Z,64.60
2018-07-10T05:55:27.466Z,64.00
2018-07-10T05:57:58.910Z,63.20
2018-07-10T06:03:00.269Z,61.10
2018-07-10T06:05:30.747Z,62.10
2018-07-10T06:08:02.257Z,59.40
2018-07-10T06:10:32.030Z,60.90
2018-07-10T06:15:37.963Z,59.80
2018-07-10T06:18:10.531Z,60.30
2018-07-10T06:20:41.718Z,60.40
2018-07-10T06:23:12.849Z,58.50
2018-07-10T06:25:50.233Z,59.50
2018-07-10T06:37:04.370Z,58.00
2018-07-10T06:39:34.581Z,58.00
2018-07-10T06:44:49.965Z,58.80
2018-07-10T06:47:26.991Z,59.40
2018-07-10T06:49:58.606Z,58.00
2018-07-10T06:52:28.646Z,57.70
2018-07-10T06:55:09.004Z,57.60
2018-07-10T06:57:45.905Z,57.70
2018-07-10T07:00:15.661Z,58.80
2018-07-10T07:02:45.564Z,58.40
2018-07-10T07:05:15.420Z,58.90
2018-07-10T07:10:20.760Z,57.60
2018-07-10T07:12:52.577Z,57.10
2018-07-10T07:15:22.438Z,56.90
2018-07-10T07:17:53.289Z,58.50
2018-07-10T07:20:23.700Z,56.10
2018-07-10T07:22:53.577Z,56.30
2018-07-10T07:25:23.338Z,56.00
2018-07-10T07:27:54.831Z,56.30
2018-07-10T07:30:25.045Z,56.50
2018-07-10T07:32:54.853Z,55.20
2018-07-10T07:35:24.643Z,55.10
2018-07-10T07:37:54.726Z,56.10
2018-07-10T07:40:25.474Z,56.70
2018-07-10T07:42:55.237Z,56.90
2018-07-10T07:45:26.046Z,55.40
2018-07-10T07:50:30.965Z,55.10
2018-07-10T07:53:01.821Z,55.00
2018-07-10T07:55:32.643Z,54.90
2018-07-10T07:58:02.984Z,55.00
2018-07-10T08:00:32.985Z,53.30
2018-07-10T08:03:02.589Z,53.20
2018-07-10T08:05:32.922Z,51.90
2018-07-10T08:08:02.665Z,52.40
2018-07-10T08:10:33.124Z,53.00
2018-07-10T08:13:04.291Z,53.50
2018-07-10T08:15:36.118Z,51.10
2018-07-10T08:18:05.914Z,50.60
2018-07-10T08:20:35.655Z,49.50
2018-07-10T08:23:05.311Z,49.40
2018-07-10T08:25:35.225Z,50.90
2018-07-10T08:28:05.452Z,48.40
2018-07-10T08:30:35.164Z,45.20
2018-07-10T08:33:04.929Z,45.80
2018-07-10T08:35:34.629Z,47.20
2018-07-10T08:38:04.599Z,47.40
2018-07-10T08:40:34.240Z,48.00
2018-07-10T08:43:04.230Z,48.10
2018-07-10T08:45:33.939Z,47.10
2018-07-10T08:48:03.862Z,50.60
2018-07-10T08:50:33.670Z,46.60
2018-07-10T08:53:03.330Z,46.80
2018-07-10T08:55:33.026Z,45.40
2018-07-10T08:58:02.864Z,44.70
2018-07-10T09:00:32.538Z,45.20
2018-07-10T09:03:02.419Z,46.20
2018-07-10T09:05:32.171Z,48.10
2018-07-10T09:08:01.991Z,48.70
2018-07-10T09:10:31.713Z,46.40
2018-07-10T09:13:01.461Z,43.40
2018-07-10T09:15:32.632Z,46.40
2018-07-10T09:18:03.567Z,45.00
2018-07-10T09:20:39.123Z,45.80
2018-07-10T09:23:08.989Z,45.60
2018-07-10T09:25:38.893Z,44.40
2018-07-10T09:30:38.272Z,43.20
2018-07-10T09:33:08.461Z,45.80
2018-07-10T09:35:38.181Z,45.40
2018-07-10T09:38:08.373Z,47.30
2018-07-10T09:40:38.160Z,44.40
2018-07-10T09:43:08.320Z,45.50
2018-07-10T09:45:38.886Z,46.90
2018-07-10T09:48:09.538Z,42.90
2018-07-10T09:50:40.044Z,42.90
2018-07-10T09:53:09.836Z,45.40
2018-07-10T09:55:39.709Z,41.70
2018-07-10T09:58:10.032Z,41.60
2018-07-10T10:00:44.918Z,43.20
2018-07-10T10:09:11.673Z,42.90
2018-07-10T10:11:57.202Z,45.00
2018-07-10T10:14:39.781Z,44.30
2018-07-10T10:17:20.230Z,41.00
2018-07-10T10:25:41.946Z,45.60
2018-07-10T10:31:08.574Z,43.10
2018-07-10T10:33:46.017Z,42.20
2018-07-10T10:39:12.140Z,41.20
2018-07-10T10:44:38.073Z,42.90
2018-07-10T10:47:11.732Z,40.90
2018-07-10T10:49:52.268Z,40.70
2018-07-10T10:52:38.396Z,38.90
2018-07-10T10:55:28.443Z,39.90
2018-07-10T11:01:05.394Z,39.80
2018-07-10T11:09:28.790Z,40.90
2018-07-10T11:12:10.779Z,40.70
2018-07-10T11:15:06.162Z,39.20
2018-07-10T11:18:02.450Z,39.80
2018-07-10T11:20:57.521Z,40.90
2018-07-10T11:26:35.759Z,42.50
2018-07-10T11:29:18.115Z,37.80
2018-07-10T11:31:57.256Z,41.90
2018-07-10T11:34:32.040Z,40.10
2018-07-10T11:37:15.610Z,40.40
2018-07-10T11:39:53.135Z,40.40
2018-07-10T11:42:31.100Z,39.40
2018-07-10T11:45:12.161Z,40.10
2018-07-10T11:47:50.420Z,44.40
2018-07-10T11:50:25.892Z,42.40
2018-07-10T11:53:05.844Z,42.10
2018-07-10T11:55:43.773Z,43.80
2018-07-10T11:58:26.850Z,42.50
2018-07-10T12:01:05.887Z,40.80
2018-07-10T12:03:47.043Z,40.80
2018-07-10T12:06:26.001Z,38.70
2018-07-10T12:09:05.765Z,39.30
2018-07-10T12:11:43.886Z,42.20
2018-07-10T12:14:20.400Z,38.70
2018-07-10T12:16:54.503Z,41.00
2018-07-10T12:19:34.029Z,38.60
2018-07-10T12:22:23.788Z,39.80
2018-07-10T12:25:07.397Z,40.70
2018-07-10T12:30:28.274Z,37.30
2018-07-10T12:33:07.047Z,39.20
2018-07-10T12:35:48.296Z,36.50
2018-07-10T12:38:26.152Z,37.30
2018-07-10T12:41:07.821Z,38.60
2018-07-10T12:43:46.627Z,39.40
2018-07-10T12:46:21.177Z,39.50
2018-07-10T12:48:58.681Z,39.40
2018-07-10T12:51:38.885Z,39.90
2018-07-10T12:54:14.808Z,38.90
2018-07-10T12:56:49.650Z,38.60
2018-07-10T12:59:28.401Z,38.30
2018-07-10T13:02:10.609Z,39.40
2018-07-10T13:04:48.592Z,37.00
2018-07-10T13:07:26.722Z,39.70
2018-07-10T13:10:00.268Z,39.00
2018-07-10T13:12:40.235Z,39.40
2018-07-10T13:15:17.407Z,40.00
2018-07-10T13:18:06.511Z,39.30
2018-07-10T13:20:48.046Z,38.50
2018-07-10T13:23:26.239Z,39.00
2018-07-10T13:26:01.682Z,37.50
2018-07-10T13:28:35.797Z,41.10
2018-07-10T13:31:13.398Z,40.10
2018-07-10T13:33:55.209Z,37.50
2018-07-10T13:36:32.332Z,39.10
2018-07-10T13:39:11.220Z,41.10
2018-07-10T13:44:41.165Z,39.10
2018-07-10T13:47:14.819Z,39.70
2018-07-10T13:49:51.475Z,40.50
2018-07-10T13:52:38.900Z,41.10
2018-07-10T13:55:19.856Z,41.60
2018-07-10T14:01:12.680Z,43.30
2018-07-10T14:06:27.262Z,42.00
2018-07-10T14:11:51.409Z,44.60
2018-07-10T14:14:32.640Z,42.60
2018-07-10T14:17:13.540Z,40.20
2018-07-10T14:19:52.476Z,40.80
2018-07-10T14:22:29.456Z,42.50
2018-07-10T14:25:13.729Z,41.00
2018-07-10T14:27:58.845Z,41.30
2018-07-10T14:30:37.832Z,43.70
2018-07-10T14:33:19.858Z,42.90
2018-07-10T14:38:44.188Z,43.80
2018-07-10T14:44:05.970Z,43.00
2018-07-10T14:46:48.943Z,44.00
2018-07-10T14:49:28.504Z,45.20
2018-07-10T14:54:42.394Z,43.60
2018-07-10T14:57:24.711Z,42.60
2018-07-10T15:05:24.503Z,44.30
2018-07-10T15:07:57.645Z,44.70
2018-07-10T15:10:30.009Z,46.10
2018-07-10T15:13:05.198Z,44.30
2018-07-10T15:15:50.196Z,45.30
2018-07-10T15:18:30.620Z,45.00
2018-07-10T15:21:08.301Z,45.40
2018-07-10T15:23:48.873Z,44.90
2018-07-10T15:26:35.672Z,45.40
2018-07-10T15:29:25.069Z,45.10
2018-07-10T15:32:08.297Z,46.00
2018-07-10T15:37:31.869Z,46.50
2018-07-10T15:40:12.870Z,45.90
2018-07-10T15:43:00.836Z,46.20
2018-07-10T15:48:19.432Z,46.20
2018-07-10T15:51:05.208Z,45.90
2018-07-10T15:53:47.623Z,47.10
2018-07-10T15:56:30.336Z,47.80
2018-07-10T15:59:08.418Z,48.10
2018-07-10T16:01:46.960Z,48.50
2018-07-10T16:10:13.174Z,49.80
2018-07-10T16:18:56.054Z,49.10
2018-07-10T16:21:53.265Z,49.20
2018-07-10T16:27:23.917Z,48.20
2018-07-10T16:30:14.468Z,48.40
2018-07-10T16:33:07.362Z,49.10
2018-07-10T16:38:46.533Z,54.60
2018-07-10T16:41:31.728Z,61.90
2018-07-10T16:55:46.706Z,80.70
2018-07-10T16:58:31.090Z,79.90
2018-07-10T17:01:19.125Z,77.40
2018-07-10T17:09:35.728Z,78.50
2018-07-10T17:15:00.919Z,76.60
2018-07-10T17:20:16.459Z,75.00
2018-07-10T17:22:58.544Z,74.70
2018-07-10T17:28:21.832Z,74.40
2018-07-10T17:31:01.541Z,74.20
2018-07-10T17:33:48.564Z,72.80
2018-07-10T17:39:31.498Z,75.50
2018-07-10T17:44:51.665Z,74.30
2018-07-10T17:47:38.998Z,74.90
2018-07-10T17:50:21.529Z,75.20
2018-07-10T17:56:10.632Z,76.40
2018-07-10T18:01:40.705Z,74.50
2018-07-10T18:04:24.527Z,76.50
2018-07-10T18:09:53.281Z,77.60
2018-07-10T18:12:34.232Z,78.00
2018-07-10T18:18:05.966Z,80.90
2018-07-10T18:20:49.488Z,82.00
2018-07-10T18:23:23.609Z,80.70
2018-07-10T18:25:58.312Z,79.60
2018-07-10T18:28:41.772Z,79.10
2018-07-10T18:31:24.867Z,78.70
2018-07-10T18:33:59.337Z,78.30
2018-07-10T18:36:32.136Z,77.60
2018-07-10T18:39:11.341Z,78.00
2018-07-10T18:41:45.007Z,77.90
2018-07-10T18:44:18.640Z,78.10
2018-07-10T18:47:09.432Z,77.30
2018-07-10T18:49:43.369Z,76.10
2018-07-10T18:55:16.442Z,74.70
2018-07-10T19:00:09.194Z,72.20
2018-07-10T19:02:50.385Z,71.30
2018-07-10T19:05:33.521Z,72.20
2018-07-10T19:10:49.360Z,72.50
2018-07-10T19:13:36.117Z,69.60
2018-07-10T19:16:10.629Z,71.10
2018-07-10T19:18:54.723Z,70.40
2018-07-10T19:21:40.917Z,69.50
2018-07-10T19:24:20.672Z,68.80
2018-07-10T19:26:57.231Z,65.00
2018-07-10T19:29:47.948Z,66.40
2018-07-10T19:32:24.698Z,67.90
2018-07-10T19:35:09.418Z,69.50
2018-07-10T19:37:57.194Z,70.20
2018-07-10T19:43:25.765Z,73.30
2018-07-10T19:46:07.172Z,73.00
2018-07-10T19:48:55.480Z,72.30
2018-07-10T19:51:32.169Z,71.60
2018-07-10T19:54:14.324Z,70.10
2018-07-10T19:56:51.585Z,70.10
2018-07-10T19:59:34.653Z,69.60
2018-07-10T20:02:20.955Z,70.30
2018-07-10T20:05:07.143Z,68.90
2018-07-10T20:07:46.874Z,70.70
2018-07-10T20:10:37.182Z,70.00
2018-07-10T20:13:22.844Z,71.10
2018-07-10T20:16:10.501Z,69.60
2018-07-10T20:20:26.724Z,68.40
2018-07-10T20:23:07.274Z,68.70
2018-07-10T20:25:56.814Z,69.70
2018-07-10T20:29:50.222Z,69.60
2018-07-10T20:34:48.223Z,70.50
2018-07-10T20:37:35.764Z,70.20
2018-07-10T20:40:17.983Z,69.70
2018-07-10T20:45:49.311Z,69.60
2018-07-10T20:48:43.466Z,70.40
2018-07-10T20:54:31.768Z,70.70
2018-07-10T20:57:42.728Z,69.90
2018-07-10T21:00:20.373Z,71.00
2018-07-10T21:05:09.502Z,72.60
2018-07-10T21:07:58.090Z,73.50
2018-07-10T21:10:39.837Z,72.80
2018-07-10T21:13:16.670Z,72.80
2018-07-10T21:17:04.613Z,71.40
2018-07-10T21:19:47.575Z,76.70
2018-07-10T21:26:48.942Z,80.00
2018-07-10T21:29:44.484Z,78.50
2018-07-10T21:32:31.999Z,81.10
2018-07-10T21:35:15.237Z,79.10
2018-07-10T21:38:04.322Z,77.50
2018-07-10T21:42:08.485Z,76.40
2018-07-10T21:46:00.357Z,76.20
2018-07-10T21:48:55.829Z,76.50
2018-07-10T21:51:36.238Z,75.00
2018-07-10T21:54:17.380Z,76.10
2018-07-10T21:56:51.152Z,76.10
2018-07-10T22:04:59.942Z,74.70
2018-07-10T22:07:36.470Z,76.40
2018-07-10T22:10:14.421Z,77.30
2018-07-10T22:15:38.349Z,78.80
2018-07-10T22:18:17.851Z,78.10
2018-07-10T22:21:02.004Z,78.40
2018-07-10T22:23:39.837Z,79.30
2018-07-10T22:26:30.736Z,80.20
2018-07-10T22:32:18.516Z,81.70
2018-07-10T22:43:20.252Z,77.40
2018-07-10T22:45:57.792Z,79.10
2018-07-10T22:48:42.790Z,78.40
2018-07-10T22:51:28.994Z,77.60
2018-07-10T22:54:09.436Z,77.00
2018-07-10T23:02:16.207Z,77.30
2018-07-10T23:04:56.518Z,78.20
2018-07-10T23:10:29.723Z,77.10
2018-07-10T23:15:50.543Z,77.00
2018-07-10T23:18:23.796Z,76.70
2018-07-10T23:20:58.532Z,76.10
2018-07-10T23:23:33.213Z,75.60
2018-07-10T23:26:06.526Z,75.40
2018-07-10T23:28:40.902Z,75.90
2018-07-10T23:31:16.347Z,75.80
2018-07-10T23:33:54.393Z,75.80
2018-07-10T23:36:27.308Z,76.50
2018-07-10T23:39:14.188Z,76.50
2018-07-10T23:41:54.122Z,77.30
2018-07-10T23:44:57.969Z,77.00
2018-07-10T23:47:34.263Z,76.80
2018-07-10T23:50:14.610Z,75.50
2018-07-10T23:53:30.032Z,76.40
2018-07-10T23:56:02.713Z,76.00
2018-07-10T23:58:36.669Z,76.60
